Time;durP1;ratioP1;P1;durP2;ratioP2;P2;SDS_P1;SDS_P2;PMS_P1;PMS_P2;Temp;Humidity;BMP_temperature;BMP_pressure;BME280_temperature;BME280_humidity;BME280_pressure;Samples;Min_cycle;Max_cycle;Signal;HPM_P1;HPM_P2
2022/10/07 00:00:54;;;;;;;6.20;4.40;;;;;;;7.65;84.08;96942.81;1757293;81;21015;-66
2022/10/07 00:03:25;;;;;;;4.27;3.30;;;;;;;7.63;84.58;96940.58;1756851;82;20988;-65
2022/10/07 00:06:09;;;;;;;4.20;3.60;;;;;;;7.64;84.74;96934.92;1756994;82;20975;-65
2022/10/07 00:08:37;;;;;;;3.30;2.83;;;;;;;7.59;85.06;96937.05;1757332;81;21437;-65
2022/10/07 00:11:12;;;;;;;5.27;3.27;;;;;;;7.54;84.54;96934.78;1757089;82;21050;-65
2022/10/07 00:13:42;;;;;;;6.30;3.33;;;;;;;7.54;84.90;96936.53;1757057;81;21067;-66
2022/10/07 00:16:19;;;;;;;4.80;3.13;;;;;;;7.58;85.10;96932.66;1756914;81;21031;-65
2022/10/07 00:18:47;;;;;;;5.93;4.07;;;;;;;7.64;85.46;96934.48;1757153;82;21031;-65
2022/10/07 00:21:16;;;;;;;3.63;2.80;;;;;;;7.69;85.85;96925.36;1757169;82;21026;-66
2022/10/07 00:23:46;;;;;;;8.03;3.67;;;;;;;7.74;85.46;96922.37;1757038;82;21055;-66
2022/10/07 00:26:19;;;;;;;8.63;3.27;;;;;;;7.72;85.29;96918.39;1757223;82;21014;-66
2022/10/07 00:28:47;;;;;;;5.10;3.57;;;;;;;7.72;85.27;96921.02;1757106;81;21494;-66
2022/10/07 00:31:18;;;;;;;7.37;4.07;;;;;;;7.66;84.75;96922.27;1757173;82;21038;-66
2022/10/07 00:33:45;;;;;;;4.30;3.90;;;;;;;7.66;85.17;96912.16;1757155;81;21018;-67
2022/10/07 00:36:22;;;;;;;8.63;3.80;;;;;;;7.65;84.92;96918.28;1757242;81;20990;-65
2022/10/07 00:38:55;;;;;;;4.83;2.80;;;;;;;7.57;84.48;96917.74;1757090;82;20999;-66
2022/10/07 00:41:32;;;;;;;4.00;2.73;;;;;;;7.61;85.18;96917.78;1756472;82;20991;-66
2022/10/07 00:44:19;;;;;;;5.23;2.80;;;;;;;7.62;84.62;96909.94;1757061;81;21020;-65
2022/10/07 00:46:46;;;;;;;4.90;2.97;;;;;;;7.59;84.89;96900.70;1757008;81;20991;-66
2022/10/07 00:49:14;;;;;;;3.70;3.13;;;;;;;7.59;85.72;96912.09;1756710;81;21092;-65
2022/10/07 00:51:42;;;;;;;6.93;4.10;;;;;;;7.64;85.24;96909.97;1757047;81;21042;-65
2022/10/07 00:54:13;;;;;;;3.67;3.00;;;;;;;7.62;85.22;96898.11;1756805;82;21069;-65
2022/10/07 00:56:43;;;;;;;4.37;2.70;;;;;;;7.68;85.14;96896.00;1729678;82;21066;-65
2022/10/07 00:59:13;;;;;;;5.37;2.80;;;;;;;7.66;84.61;96891.14;1757066;82;21509;-65
2022/10/07 01:01:41;;;;;;;4.13;2.80;;;;;;;7.67;84.90;96885.92;1757000;82;21026;-66
2022/10/07 01:04:11;;;;;;;4.83;2.87;;;;;;;7.75;85.27;96886.90;1757172;81;21053;-65
2022/10/07 01:06:39;;;;;;;8.33;3.57;;;;;;;7.85;85.54;96890.97;1757071;82;21477;-65
2022/10/07 01:09:07;;;;;;;5.60;3.13;;;;;;;7.89;85.15;96885.78;1756682;82;21027;-66
2022/10/07 01:11:54;;;;;;;4.00;3.50;;;;;;;7.89;84.31;96884.47;1757557;82;21010;-66
2022/10/07 01:14:58;;;;;;;4.87;2.30;;;;;;;7.83;84.16;96883.05;1756679;82;21023;-66
2022/10/07 01:17:32;;;;;;;5.58;2.60;;;;;;;7.77;84.11;96881.23;1757141;82;21007;-66
2022/10/07 01:20:39;;;;;;;6.53;2.53;;;;;;;7.62;84.53;96886.73;1729022;82;21031;-66
2022/10/07 01:23:32;;;;;;;5.37;2.80;;;;;;;7.54;85.19;96883.56;1726807;82;21022;-66
2022/10/07 01:26:05;;;;;;;4.45;3.22;;;;;;;7.50;85.57;96877.80;1749494;82;21062;-66
2022/10/07 01:28:40;;;;;;;;;;;;;;;7.50;85.58;96871.67;1759710;81;21031;-66
2022/10/07 01:31:12;;;;;;;6.27;3.60;;;;;;;7.50;85.66;96879.55;1756576;82;20123;-66
2022/10/07 01:33:42;;;;;;;4.83;2.90;;;;;;;7.48;85.40;96873.39;1757090;81;21027;-67
2022/10/07 01:36:14;;;;;;;4.10;2.33;;;;;;;7.41;85.81;96885.98;1729768;82;21018;-65
2022/10/07 01:38:45;;;;;;;2.93;2.43;;;;;;;7.34;85.58;96884.59;1757112;81;21027;-65
2022/10/07 01:41:16;;;;;;;6.90;2.40;;;;;;;7.32;85.39;96875.80;1757476;81;21145;-66
2022/10/07 01:43:46;;;;;;;2.57;2.10;;;;;;;7.33;85.31;96861.83;1752200;81;21038;-65
2022/10/07 01:46:18;;;;;;;4.40;2.63;;;;;;;7.32;85.12;96873.17;1751587;81;21011;-66
2022/10/07 01:48:46;;;;;;;2.80;2.10;;;;;;;7.30;85.01;96867.02;1751465;81;21493;-66
2022/10/07 01:51:24;;;;;;;2.93;2.10;;;;;;;7.29;85.49;96868.33;1751526;82;21017;-66
2022/10/07 01:54:14;;;;;;;6.10;2.40;;;;;;;7.22;85.80;96867.34;1751527;81;21501;-67
2022/10/07 01:57:21;;;;;;;3.83;2.50;;;;;;;7.19;85.29;96869.92;1751988;81;21031;-66
2022/10/07 02:00:10;;;;;;;3.40;2.53;;;;;;;7.22;85.39;96868.66;1722224;82;21501;-67
2022/10/07 02:03:10;;;;;;;4.00;2.50;;;;;;;7.22;85.53;96865.16;1751464;82;20980;-67
2022/10/07 02:05:55;;;;;;;7.67;3.58;;;;;;;7.22;85.87;96867.78;1695259;82;21003;-66
2022/10/07 02:08:39;;;;;;;5.37;2.53;;;;;;;7.21;85.69;96869.52;1750543;82;21043;-66
2022/10/07 02:11:14;;;;;;;4.50;2.50;;;;;;;7.20;85.50;96861.18;1751601;82;20995;-66
2022/10/07 02:14:15;;;;;;;6.07;2.60;;;;;;;7.23;86.42;96862.97;1750499;82;21050;-67
2022/10/07 02:16:46;;;;;;;4.67;2.43;;;;;;;7.27;86.26;96868.73;1751849;81;20967;-66
2022/10/07 02:19:38;;;;;;;7.40;2.70;;;;;;;7.26;85.86;96871.79;1751714;81;21553;-66
2022/10/07 02:22:07;;;;;;;8.20;2.30;;;;;;;7.24;86.01;96866.94;1751705;81;21023;-67
2022/10/07 02:24:37;;;;;;;4.03;2.47;;;;;;;7.22;85.82;96871.28;1751785;82;21019;-67
2022/10/07 02:27:10;;;;;;;4.37;2.60;;;;;;;7.25;85.67;96878.31;1751902;81;21015;-67
2022/10/07 02:29:41;;;;;;;3.83;3.25;;;;;;;7.26;86.00;96873.10;1751839;81;21521;-67
2022/10/07 02:32:12;;;;;;;7.23;3.10;;;;;;;7.30;85.68;96872.70;1751525;81;20979;-64
2022/10/07 02:34:44;;;;;;;4.97;2.60;;;;;;;7.32;85.66;96871.86;1751731;81;21014;-65
2022/10/07 02:37:19;;;;;;;6.00;2.70;;;;;;;7.40;85.85;96861.91;1751738;81;21027;-64
2022/10/07 02:39:47;;;;;;;3.27;2.53;;;;;;;7.43;85.57;96856.69;1751451;82;21035;-64
2022/10/07 02:42:32;;;;;;;3.97;2.70;;;;;;;7.42;85.17;96864.12;1751433;81;20968;-64
2022/10/07 02:45:05;;;;;;;4.60;2.80;;;;;;;7.40;85.62;96868.03;1751597;81;21023;-67
2022/10/07 02:47:48;;;;;;;4.65;2.55;;;;;;;7.37;85.27;96863.63;1751381;82;20991;-66
2022/10/07 02:50:23;;;;;;;4.10;2.22;;;;;;;7.44;85.51;96864.60;1751752;82;21000;-66
2022/10/07 02:52:54;;;;;;;3.07;2.20;;;;;;;7.40;84.89;96864.53;1751631;81;20999;-67
2022/10/07 02:55:25;;;;;;;12.63;2.47;;;;;;;7.40;85.22;96864.09;1751672;82;21020;-66
2022/10/07 02:57:56;;;;;;;3.80;2.80;;;;;;;7.51;85.82;96867.77;1751782;82;21787;-67
2022/10/07 03:00:23;;;;;;;5.30;2.50;;;;;;;7.57;85.58;96865.22;1751547;82;21042;-67
2022/10/07 03:02:57;;;;;;;4.37;2.80;;;;;;;7.49;84.64;96865.98;1751376;82;21485;-64
2022/10/07 03:05:26;;;;;;;8.03;2.47;;;;;;;7.47;85.11;96873.83;1750775;82;21509;-64
2022/10/07 03:08:05;;;;;;;2.93;2.53;;;;;;;7.44;85.17;96869.86;1752163;81;21059;-63
2022/10/07 03:10:33;;;;;;;3.97;2.30;;;;;;;7.49;85.84;96873.86;1751570;81;21058;-65
2022/10/07 03:13:03;;;;;;;5.50;2.30;;;;;;;7.47;85.41;96876.89;1751760;81;20987;-64
2022/10/07 03:15:28;;;;;;;2.23;2.03;;;;;;;7.36;85.38;96884.19;1751325;82;21525;-64
2022/10/07 03:17:55;;;;;;;3.13;2.33;;;;;;;7.29;85.24;96883.64;1751617;82;20991;-64
2022/10/07 03:20:22;;;;;;;5.63;2.63;;;;;;;7.31;85.43;96883.23;1722077;82;21584;-64
2022/10/07 03:22:50;;;;;;;3.00;2.70;;;;;;;7.27;85.12;96873.54;1751170;82;21452;-64
2022/10/07 03:25:17;;;;;;;3.43;2.40;;;;;;;7.27;85.27;96872.23;1751575;81;21003;-64
2022/10/07 03:27:44;;;;;;;8.13;3.00;;;;;;;7.29;85.48;96872.27;1751635;81;21015;-64
2022/10/07 03:30:12;;;;;;;5.50;3.13;;;;;;;7.23;85.96;96867.81;1751485;81;21003;-64
2022/10/07 03:32:40;;;;;;;3.07;2.53;;;;;;;7.19;85.97;96869.92;1751304;81;21019;-64
2022/10/07 03:35:09;;;;;;;9.13;3.20;;;;;;;7.19;85.62;96870.36;1751668;82;20991;-64
2022/10/07 03:37:36;;;;;;;6.03;3.33;;;;;;;7.20;86.06;96862.93;1751492;81;21509;-64
2022/10/07 03:40:05;;;;;;;3.77;2.67;;;;;;;7.21;86.07;96864.27;1751488;81;21026;-64
2022/10/07 03:42:32;;;;;;;4.30;3.57;;;;;;;7.16;86.10;96863.33;1751415;82;21604;-64
2022/10/07 03:44:59;;;;;;;4.13;3.33;;;;;;;7.17;85.75;96862.45;1751581;82;21004;-64
2022/10/07 03:47:26;;;;;;;6.73;4.10;;;;;;;7.20;85.78;96863.80;1751423;81;21030;-64
2022/10/07 03:49:55;;;;;;;4.80;3.70;;;;;;;7.26;86.04;96857.34;1751214;82;21545;-64
2022/10/07 03:52:23;;;;;;;6.13;3.57;;;;;;;7.34;86.15;96858.77;1722118;82;20971;-64
2022/10/07 03:54:55;;;;;;;5.73;3.40;;;;;;;7.37;85.99;96855.74;1751485;82;21019;-65
2022/10/07 04:00:07;;;;;;;4.20;3.40;;;;;;;7.47;86.06;96855.89;1751597;81;21015;-67
2022/10/07 04:02:35;;;;;;;10.67;4.10;;;;;;;7.56;86.17;96851.64;1750267;82;21010;-67
2022/10/07 04:05:04;;;;;;;4.50;3.50;;;;;;;7.61;85.79;96856.05;1751433;82;21042;-67
2022/10/07 04:07:32;;;;;;;7.00;5.37;;;;;;;7.60;85.56;96855.17;1751520;82;21489;-66
2022/10/07 04:09:59;;;;;;;4.53;3.33;;;;;;;7.60;85.29;96853.86;1751623;81;21078;-70
2022/10/07 04:12:26;;;;;;;4.07;3.50;;;;;;;7.55;85.51;96853.80;1751577;81;21143;-67
2022/10/07 04:14:53;;;;;;;4.83;3.70;;;;;;;7.55;85.43;96857.73;1751370;82;21047;-68
2022/10/07 04:17:20;;;;;;;4.00;3.60;;;;;;;7.57;85.57;96852.08;1751557;82;21069;-69
2022/10/07 04:19:47;;;;;;;6.43;3.70;;;;;;;7.57;85.67;96857.33;1751076;82;21532;-66
2022/10/07 04:22:15;;;;;;;6.27;3.67;;;;;;;7.59;85.86;96849.05;1751580;82;21520;-66
2022/10/07 04:24:42;;;;;;;6.73;4.10;;;;;;;7.61;85.73;96851.70;1751501;81;21062;-66
2022/10/07 04:27:09;;;;;;;5.00;3.10;;;;;;;7.61;85.64;96845.55;1751153;82;21528;-67
2022/10/07 04:29:35;;;;;;;4.33;3.37;;;;;;;7.67;85.87;96841.70;1751485;81;21057;-67
2022/10/07 04:32:02;;;;;;;4.90;3.37;;;;;;;7.69;85.76;96842.17;1751626;82;21023;-67
2022/10/07 04:34:29;;;;;;;9.57;3.47;;;;;;;7.74;86.02;96829.98;1751047;81;21035;-67
2022/10/07 04:36:59;;;;;;;6.77;3.10;;;;;;;7.75;85.72;96829.09;1751556;82;20983;-67
2022/10/07 04:39:25;;;;;;;7.47;3.43;;;;;;;7.77;85.67;96827.81;1751430;81;21039;-67
2022/10/07 04:41:53;;;;;;;3.83;3.23;;;;;;;7.80;85.70;96827.84;1751405;82;21145;-67
2022/10/07 04:44:22;;;;;;;3.40;3.10;;;;;;;7.87;85.53;96828.81;1750942;82;21061;-67
2022/10/07 04:46:55;;;;;;;5.23;3.00;;;;;;;7.84;85.26;96824.81;1750953;82;21572;-67
2022/10/07 04:49:24;;;;;;;4.13;3.07;;;;;;;7.77;84.57;96823.88;1722882;82;20979;-65
2022/10/07 04:51:53;;;;;;;7.00;3.53;;;;;;;7.66;85.20;96829.41;1750550;81;21516;-71
2022/10/07 04:54:21;;;;;;;4.07;2.80;;;;;;;7.62;85.55;96827.19;1751092;81;20995;-65
2022/10/07 04:56:49;;;;;;;5.37;3.83;;;;;;;7.65;85.35;96823.28;1751531;82;21472;-64
2022/10/07 04:59:16;;;;;;;3.90;2.93;;;;;;;7.62;85.75;96824.56;1751170;82;20996;-66
2022/10/07 05:01:43;;;;;;;4.67;2.80;;;;;;;7.62;85.29;96823.25;1750954;82;21473;-65
2022/10/07 05:04:10;;;;;;;10.47;5.00;;;;;;;7.60;85.20;96821.03;1750653;82;21525;-69
2022/10/07 05:06:39;;;;;;;5.97;2.67;;;;;;;7.59;85.11;96830.66;1741941;81;21043;-66
2022/10/07 05:09:07;;;;;;;6.17;2.80;;;;;;;7.69;85.91;96826.84;1735921;83;21069;-68
2022/10/07 05:11:36;;;;;;;7.53;3.07;;;;;;;7.69;85.19;96825.09;1736105;83;21042;-65
2022/10/07 05:14:08;;;;;;;3.43;3.13;;;;;;;7.59;84.94;96829.79;1735610;82;21094;-72
2022/10/07 05:16:35;;;;;;;5.67;2.70;;;;;;;7.57;85.15;96829.75;1735998;83;20983;-66
2022/10/07 05:19:02;;;;;;;3.27;2.97;;;;;;;7.61;85.23;96833.73;1736193;83;22224;-71
2022/10/07 05:21:29;;;;;;;6.07;3.33;;;;;;;7.62;85.60;96839.45;1736234;83;21006;-75
2022/10/07 05:23:57;;;;;;;3.77;3.20;;;;;;;7.68;86.03;96838.20;1735981;83;21134;-70
2022/10/07 05:26:26;;;;;;;6.03;2.97;;;;;;;7.67;85.31;96835.14;1735745;82;21131;-72
2022/10/07 05:28:55;;;;;;;4.23;3.10;;;;;;;7.70;85.37;96842.61;1735866;81;21042;-70
2022/10/07 05:31:25;;;;;;;5.70;2.90;;;;;;;7.74;85.50;96845.73;1736044;82;21500;-75
2022/10/07 05:33:53;;;;;;;4.83;2.50;;;;;;;7.78;85.51;96838.77;1736255;83;21091;-73
2022/10/07 05:36:21;;;;;;;3.70;2.77;;;;;;;7.70;85.42;96846.99;1736223;83;21091;-74
2022/10/07 05:38:49;;;;;;;6.00;2.87;;;;;;;7.65;85.56;96846.05;1736569;83;21051;-71
2022/10/07 05:41:16;;;;;;;4.40;2.97;;;;;;;7.64;86.14;96850.42;1736085;83;21114;-75
2022/10/07 05:43:43;;;;;;;51.93;39.93;;;;;;;7.64;86.34;96858.31;1746896;81;21129;-69
2022/10/07 05:46:15;;;;;;;15.23;9.97;;;;;;;7.64;86.42;96858.31;1763472;81;21114;-68
2022/10/07 05:48:52;;;;;;;14.83;12.67;;;;;;;7.70;86.33;96854.88;1762658;81;21071;-66
2022/10/07 05:51:21;;;;;;;17.67;10.83;;;;;;;7.74;86.74;96847.49;1762988;81;21006;-68
2022/10/07 05:53:53;;;;;;;11.97;6.13;;;;;;;7.85;86.90;96847.62;1762011;81;21093;-67
2022/10/07 05:56:20;;;;;;;12.63;8.07;;;;;;;7.94;87.09;96843.36;1762772;81;21548;-67
2022/10/07 05:58:51;;;;;;;4.87;3.30;;;;;;;8.01;87.25;96845.20;1763302;81;20996;-67
2022/10/07 06:01:21;;;;;;;4.73;3.47;;;;;;;8.14;87.14;96854.09;1762762;81;21142;-66
2022/10/07 06:03:52;;;;;;;8.93;7.33;;;;;;;8.16;86.58;96847.52;1763060;81;21022;-66
2022/10/07 06:06:20;;;;;;;7.43;5.50;;;;;;;8.20;86.70;96851.96;1763027;81;21011;-67
2022/10/07 06:08:49;;;;;;;15.90;12.60;;;;;;;8.33;87.26;96852.97;1763379;81;20983;-64
2022/10/07 06:14:05;;;;;;;16.93;14.30;;;;;;;8.75;87.73;96852.97;1731333;83;21523;-67
2022/10/07 06:16:31;;;;;;;14.03;10.93;;;;;;;8.97;87.23;96849.66;1731332;83;21003;-69
2022/10/07 06:18:59;;;;;;;11.20;5.33;;;;;;;9.13;87.01;96846.69;1731073;83;21055;-68
2022/10/07 06:21:27;;;;;;;6.93;5.37;;;;;;;9.22;85.89;96849.81;1731388;83;21556;-69
2022/10/07 06:23:57;;;;;;;6.73;2.90;;;;;;;9.20;85.96;96852.89;1730972;83;21035;-71
2022/10/07 06:26:25;;;;;;;7.40;3.30;;;;;;;9.31;86.16;96848.13;1730954;83;21125;-67
2022/10/07 06:28:53;;;;;;;46.63;41.97;;;;;;;9.45;86.02;96852.17;1731520;83;21050;-69
2022/10/07 06:31:23;;;;;;;11.27;7.70;;;;;;;9.62;86.13;96855.33;1731634;82;20994;-65
2022/10/07 06:33:52;;;;;;;10.57;6.43;;;;;;;9.78;86.00;96849.69;1731544;83;21091;-67
2022/10/07 06:36:19;;;;;;;7.78;5.28;;;;;;;9.91;85.58;96854.16;1731398;83;21019;-67
2022/10/07 06:38:49;;;;;;;6.67;3.70;;;;;;;10.03;85.12;96853.30;1731465;83;21129;-67
2022/10/07 06:41:17;;;;;;;6.70;4.10;;;;;;;10.13;84.50;96863.91;1731483;83;21473;-66
2022/10/07 06:43:45;;;;;;;5.95;4.20;;;;;;;10.23;84.41;96865.24;1724405;83;21537;-62
2022/10/07 06:46:17;;;;;;;6.37;4.78;;;;;;;10.29;83.27;96865.31;1705671;84;21007;-69
2022/10/07 06:48:45;;;;;;;9.00;4.60;;;;;;;10.40;83.58;96862.25;1705776;83;21541;-65
2022/10/07 06:51:16;;;;;;;6.17;3.98;;;;;;;10.47;83.65;96857.88;1706142;84;20991;-66
2022/10/07 06:53:43;;;;;;;4.78;3.47;;;;;;;10.57;83.70;96863.61;1709934;83;21026;-67
2022/10/07 06:56:13;;;;;;;5.55;3.20;;;;;;;10.65;82.45;96861.86;1711027;84;21449;-65
2022/10/07 06:58:42;;;;;;;6.05;3.00;;;;;;;10.74;82.61;96865.84;1704894;84;21011;-67
2022/10/07 07:01:11;;;;;;;4.83;2.95;;;;;;;10.85;82.28;96853.96;1708578;84;21014;-67
2022/10/07 07:03:39;;;;;;;10.03;3.30;;;;;;;10.93;81.65;96856.16;1705954;84;21453;-66
2022/10/07 07:06:09;;;;;;;6.03;3.37;;;;;;;11.03;81.15;96854.41;1712432;84;21102;-71
2022/10/07 07:08:39;;;;;;;4.08;3.60;;;;;;;11.16;81.40;96857.92;1715746;84;21063;-67
2022/10/07 07:13:57;;;;;;;6.35;3.20;;;;;;;11.26;79.30;96842.08;1715145;83;21069;-65
2022/10/07 07:16:25;;;;;;;8.98;3.20;;;;;;;11.39;80.25;96845.58;1733378;83;21018;-65
2022/10/07 07:19:01;;;;;;;3.02;2.72;;;;;;;11.52;80.54;96842.47;1735430;83;21469;-64
2022/10/07 07:21:28;;;;;;;3.17;2.50;;;;;;;11.65;80.19;96834.06;1716596;83;20972;-64
2022/10/07 07:23:57;;;;;;;2.67;2.47;;;;;;;11.82;79.91;96835.34;1708440;84;21079;-64
2022/10/07 07:26:23;;;;;;;5.17;2.72;;;;;;;11.99;80.01;96832.64;1708422;84;21013;-64
2022/10/07 07:28:58;;;;;;;2.77;2.10;;;;;;;12.19;79.41;96836.52;1707838;84;21043;-64
2022/10/07 07:31:32;;;;;;;4.00;2.40;;;;;;;12.39;79.01;96840.38;1687011;84;21011;-64
2022/10/07 07:34:04;;;;;;;3.37;2.12;;;;;;;12.57;78.25;96833.64;1709315;84;21030;-67
2022/10/07 07:36:33;;;;;;;4.10;2.50;;;;;;;12.77;77.58;96843.68;1706432;84;20994;-69
2022/10/07 07:39:05;;;;;;;3.40;2.40;;;;;;;12.92;76.63;96836.03;1711409;84;20980;-70
2022/10/07 07:41:35;;;;;;;3.30;2.40;;;;;;;13.07;76.60;96834.16;1686385;83;21075;-67
2022/10/07 07:44:07;;;;;;;5.83;2.47;;;;;;;13.23;75.59;96823.88;1716514;83;21096;-71
2022/10/07 07:46:38;;;;;;;25.48;13.38;;;;;;;13.34;74.55;96826.45;1716300;83;21494;-71
2022/10/07 07:49:09;;;;;;;7.53;3.45;;;;;;;13.45;74.47;96822.35;1715939;83;21011;-67
2022/10/07 07:51:37;;;;;;;5.08;2.60;;;;;;;13.60;74.62;96819.08;1716275;84;21392;-71
2022/10/07 07:54:05;;;;;;;3.62;2.75;;;;;;;13.74;74.47;96821.59;1716534;83;21031;-67
2022/10/07 07:56:32;;;;;;;4.80;2.72;;;;;;;13.87;72.83;96828.09;1715551;83;21103;-66
2022/10/07 07:59:00;;;;;;;2.65;2.37;;;;;;;13.94;71.30;96825.34;1715822;84;21495;-67
2022/10/07 08:01:31;;;;;;;6.92;2.77;;;;;;;14.05;72.58;96825.20;1716212;84;21016;-70
2022/10/07 08:03:59;;;;;;;4.42;3.10;;;;;;;14.20;72.68;96818.83;1716237;84;20960;-71
2022/10/07 08:06:27;;;;;;;4.22;2.98;;;;;;;14.29;71.96;96822.24;1716169;83;21023;-70
2022/10/07 08:08:58;;;;;;;3.60;3.20;;;;;;;14.32;70.86;96820.45;1716246;83;21485;-68
2022/10/07 08:11:24;;;;;;;6.65;3.00;;;;;;;14.31;70.97;96823.53;1716210;82;21042;-69
2022/10/07 08:13:51;;;;;;;7.17;3.05;;;;;;;14.31;70.90;96821.33;1716296;83;21528;-69
2022/10/07 08:16:21;;;;;;;6.50;3.45;;;;;;;14.36;70.41;96825.67;1715433;84;21185;-68
2022/10/07 08:18:50;;;;;;;5.33;3.50;;;;;;;14.37;70.89;96821.27;1716100;83;21019;-69
2022/10/07 08:21:21;;;;;;;5.60;3.00;;;;;;;14.46;71.15;96819.78;1716231;84;21087;-69
2022/10/07 08:23:52;;;;;;;7.45;3.15;;;;;;;14.60;71.36;96819.63;1716407;84;21167;-69
2022/10/07 08:26:19;;;;;;;4.55;3.20;;;;;;;14.69;70.78;96811.08;1716091;83;21521;-69
2022/10/07 08:28:47;;;;;;;5.33;3.20;;;;;;;14.76;69.71;96816.28;1716001;83;21078;-69
2022/10/07 08:31:18;;;;;;;4.03;3.37;;;;;;;14.88;70.70;96809.45;1715935;84;21122;-72
2022/10/07 08:33:48;;;;;;;8.63;3.87;;;;;;;15.00;70.08;96803.07;1715953;83;20987;-70
2022/10/07 08:36:18;;;;;;;7.17;4.15;;;;;;;15.13;70.67;96804.16;1716155;83;21070;-69
2022/10/07 08:38:47;;;;;;;6.25;3.80;;;;;;;15.30;70.80;96801.66;1716135;84;21058;-69
2022/10/07 08:41:36;;;;;;;8.68;7.78;;;;;;;15.42;69.62;96794.80;1715986;83;21158;-66
2022/10/07 08:44:31;;;;;;;7.62;3.80;;;;;;;15.53;68.98;96797.25;1719370;83;21097;-67
2022/10/07 08:47:14;;;;;;;3.90;3.17;;;;;;;15.66;68.75;96801.88;1736272;82;21067;-65
2022/10/07 08:50:03;;;;;;;4.23;2.83;;;;;;;15.78;67.66;96801.22;1737700;83;21066;-75
2022/10/07 08:52:35;;;;;;;5.85;3.17;;;;;;;15.85;67.66;96795.33;1737083;82;21022;-66
2022/10/07 08:55:03;;;;;;;4.62;2.72;;;;;;;15.97;68.22;96791.52;1736851;83;21464;-74
2022/10/07 08:58:08;;;;;;;4.92;3.00;;;;;;;16.12;66.94;96790.33;1736994;83;21019;-72
2022/10/07 09:00:52;;;;;;;7.40;6.70;;;;;;;16.29;67.83;96793.50;1737118;83;21547;-75
2022/10/07 09:03:40;;;;;;;3.83;3.15;;;;;;;16.40;66.65;96787.93;1737237;82;21071;-71
2022/10/07 09:06:25;;;;;;;9.60;4.80;;;;;;;16.56;66.70;96791.14;1719469;83;21049;-71
2022/10/07 09:09:01;;;;;;;3.33;2.90;;;;;;;16.68;65.64;96785.97;1737287;83;21073;-68
2022/10/07 09:11:30;;;;;;;8.08;3.00;;;;;;;16.81;66.17;96773.69;1737009;83;21505;-68
2022/10/07 09:14:11;;;;;;;7.40;2.70;;;;;;;16.93;64.94;96775.16;1737729;82;21065;-68
2022/10/07 09:16:42;;;;;;;9.30;3.83;;;;;;;17.06;65.75;96777.95;1736993;83;21079;-68
2022/10/07 09:19:26;;;;;;;5.45;3.17;;;;;;;17.20;64.11;96778.92;1737036;83;21014;-68
2022/10/07 09:21:56;;;;;;;5.37;2.80;;;;;;;17.29;64.41;96784.03;1736768;83;21033;-68
2022/10/07 09:24:27;;;;;;;7.35;3.05;;;;;;;17.32;63.19;96775.53;1737698;81;21054;-68
2022/10/07 09:27:00;;;;;;;6.83;3.40;;;;;;;17.43;64.20;96774.31;1737486;83;21026;-68
2022/10/07 09:29:29;;;;;;;11.75;7.05;;;;;;;17.51;62.42;96773.67;1737756;83;21517;-68
2022/10/07 09:31:57;;;;;;;88.78;39.48;;;;;;;17.62;64.38;96769.83;1706710;84;21039;-68
2022/10/07 09:34:27;;;;;;;4.25;3.90;;;;;;;17.67;62.57;96767.45;1737368;83;20983;-68
2022/10/07 09:37:21;;;;;;;3.47;3.02;;;;;;;17.74;61.16;96767.70;1736750;82;21461;-68
2022/10/07 09:39:50;;;;;;;7.12;5.25;;;;;;;17.89;63.08;96769.09;1736977;83;21033;-68
2022/10/07 09:42:39;;;;;;;4.85;4.35;;;;;;;17.97;60.96;96762.63;1736705;83;21018;-68
2022/10/07 09:45:30;;;;;;;3.20;2.90;;;;;;;18.02;61.72;96759.39;1726864;83;21059;-68
2022/10/07 09:48:06;;;;;;;5.70;2.92;;;;;;;18.06;62.51;96761.03;1715550;84;21089;-68
2022/10/07 09:50:37;;;;;;;5.87;3.30;;;;;;;18.14;62.00;96755.89;1713829;84;21031;-68
2022/10/07 09:53:24;;;;;;;4.08;3.12;;;;;;;18.26;61.39;96753.30;1716484;83;21493;-68
2022/10/07 09:55:53;;;;;;;6.08;3.10;;;;;;;18.40;61.74;96751.55;1716508;83;21079;-68
2022/10/07 09:58:31;;;;;;;7.72;3.30;;;;;;;18.46;59.07;96749.14;1716401;84;21019;-68
2022/10/07 10:01:01;;;;;;;3.90;3.50;;;;;;;18.46;59.33;96741.99;1716565;84;21019;-68
2022/10/07 10:03:35;;;;;;;3.70;3.37;;;;;;;18.51;58.10;96734.70;1715976;84;21561;-69
2022/10/07 10:06:06;;;;;;;7.10;4.47;;;;;;;18.63;59.84;96737.92;1716543;83;21015;-68
2022/10/07 10:08:37;;;;;;;8.65;3.80;;;;;;;18.65;57.73;96734.27;1716546;84;21517;-69
2022/10/07 10:11:19;;;;;;;5.45;3.58;;;;;;;18.73;57.63;96728.68;1716360;84;21501;-69
2022/10/07 10:13:50;;;;;;;7.55;4.10;;;;;;;18.77;57.57;96725.89;1715907;82;21031;-68
2022/10/07 10:16:35;;;;;;;6.03;3.58;;;;;;;18.81;57.53;96722.64;1716455;84;21103;-68
2022/10/07 10:19:25;;;;;;;8.00;3.80;;;;;;;18.86;58.26;96719.82;1716648;83;21022;-68
2022/10/07 10:21:57;;;;;;;5.10;3.50;;;;;;;19.07;57.89;96712.86;1716454;84;21075;-68
2022/10/07 10:27:27;;;;;;;6.60;3.60;;;;;;;19.35;57.16;96715.44;1723650;82;21010;-68
2022/10/07 10:30:07;;;;;;;5.90;4.03;;;;;;;19.54;55.42;96711.19;1751354;82;21083;-68
2022/10/07 10:32:47;;;;;;;7.83;3.70;;;;;;;19.90;56.55;96702.75;1751626;82;21087;-68
2022/10/07 10:35:34;;;;;;;7.35;3.27;;;;;;;20.49;56.02;96696.01;1751719;82;21010;-68
2022/10/07 10:38:34;;;;;;;3.62;3.33;;;;;;;20.88;54.78;96692.17;1746366;82;21119;-68
2022/10/07 10:41:19;;;;;;;6.78;3.92;;;;;;;21.30;52.76;96693.97;1751883;81;21082;-68
2022/10/07 10:44:11;;;;;;;5.70;3.27;;;;;;;21.86;52.92;96692.39;1751632;81;21531;-68
2022/10/07 10:47:05;;;;;;;6.08;3.33;;;;;;;22.37;51.77;96681.50;1727989;82;21011;-68
2022/10/07 10:49:44;;;;;;;6.60;3.50;;;;;;;22.85;48.13;96678.69;1694523;82;21068;-69
2022/10/07 10:52:32;;;;;;;3.92;3.20;;;;;;;23.31;47.24;96678.23;1751379;82;21541;-69
2022/10/07 10:55:26;;;;;;;7.20;3.22;;;;;;;23.59;45.17;96676.30;1751786;82;21043;-69
2022/10/07 10:57:58;;;;;;;9.40;3.20;;;;;;;23.98;47.01;96670.59;1752084;82;21026;-69
2022/10/07 11:00:30;;;;;;;4.05;3.05;;;;;;;24.37;45.65;96667.12;1751424;82;21146;-69
2022/10/07 11:03:11;;;;;;;3.72;3.10;;;;;;;24.61;44.31;96664.39;1750583;82;21091;-69
2022/10/07 11:05:41;;;;;;;3.37;2.80;;;;;;;24.96;42.92;96660.13;1749817;82;20987;-69
2022/10/07 11:08:19;;;;;;;5.37;2.83;;;;;;;25.16;40.75;96659.43;1751723;82;20991;-69
2022/10/07 11:10:57;;;;;;;5.47;2.90;;;;;;;25.55;42.80;96652.59;1751410;82;20980;-69
2022/10/07 11:13:39;;;;;;;4.25;2.90;;;;;;;25.86;41.82;96651.61;1751218;82;21075;-70
2022/10/07 11:16:18;;;;;;;3.02;2.60;;;;;;;26.13;41.72;96643.55;1751801;82;21521;-70
2022/10/07 11:18:59;;;;;;;4.08;2.70;;;;;;;26.43;40.05;96642.55;1752026;82;20956;-69
2022/10/07 11:21:49;;;;;;;5.28;2.87;;;;;;;26.62;39.80;96639.05;1751465;81;21521;-70
2022/10/07 11:24:27;;;;;;;5.62;2.60;;;;;;;26.89;39.35;96639.06;1750649;82;21114;-70
2022/10/07 11:27:16;;;;;;;3.47;2.85;;;;;;;26.84;37.79;96637.61;1751143;82;21023;-70
2022/10/07 11:29:57;;;;;;;4.10;2.52;;;;;;;27.08;38.21;96635.09;1751576;82;21055;-69
2022/10/07 11:32:32;;;;;;;3.90;2.58;;;;;;;27.31;35.94;96624.92;1751408;81;21556;-70
2022/10/07 11:35:16;;;;;;;3.55;2.58;;;;;;;27.59;36.40;96625.71;1751378;82;21015;-70
2022/10/07 11:37:51;;;;;;;3.72;2.80;;;;;;;27.73;36.60;96625.61;1751107;81;21066;-70
2022/10/07 11:40:21;;;;;;;3.92;2.50;;;;;;;27.56;35.35;96627.28;1745595;82;21007;-70
2022/10/07 11:42:50;;;;;;;3.30;2.30;;;;;;;28.05;36.94;96615.20;1751525;81;20975;-69
2022/10/07 11:45:32;;;;;;;3.50;2.60;;;;;;;28.25;33.60;96614.25;1751458;82;21083;-70
2022/10/07 11:48:06;;;;;;;6.60;2.43;;;;;;;28.54;34.83;96606.69;1751811;81;21019;-70
2022/10/07 11:50:41;;;;;;;3.37;2.08;;;;;;;28.56;33.79;96602.02;1751410;82;21039;-70
2022/10/07 11:53:25;;;;;;;5.62;2.47;;;;;;;28.65;32.86;96605.41;1751729;81;21541;-70
2022/10/07 11:56:03;;;;;;;5.08;2.30;;;;;;;29.06;33.15;96600.06;1751507;81;21003;-70
2022/10/07 11:58:36;;;;;;;3.98;2.50;;;;;;;29.33;32.50;96604.33;1751546;81;21015;-70
2022/10/07 12:01:29;;;;;;;3.52;2.22;;;;;;;29.42;32.35;96602.77;1751608;82;21175;-70
2022/10/07 12:04:25;;;;;;;2.98;2.15;;;;;;;29.36;31.30;96598.69;1751575;82;21034;-70
2022/10/07 12:07:43;;;;;;;3.77;2.12;;;;;;;29.44;32.27;96598.08;1739799;82;21477;-70
2022/10/07 12:10:27;;;;;;;4.15;2.30;;;;;;;29.61;31.44;96598.98;1751316;82;21504;-71
2022/10/07 12:12:57;;;;;;;3.27;2.30;;;;;;;29.59;30.74;96590.08;1751588;82;21082;-70
2022/10/07 12:15:42;;;;;;;2.90;2.30;;;;;;;29.77;30.93;96586.41;1751576;81;21019;-70
2022/10/07 12:18:25;;;;;;;6.85;2.55;;;;;;;30.04;29.38;96583.33;1751463;82;21031;-70